Time;durP1;ratioP1;P1;durP2;ratioP2;P2;SDS_P1;SDS_P2;PMS_P1;PMS_P2;Temp;Humidity;BMP_temperature;BMP_pressure;BME280_temperature;BME280_humidity;BME280_pressure;Samples;Min_cycle;Max_cycle;Signal;HPM_P1;HPM_P2
2022/07/05 00:00:59;;;;;;;3.95;3.55;;;16.30;99.90;;;;;;5115767;28;20196;-77
2022/07/05 00:03:27;;;;;;;3.50;1.90;;;16.30;99.90;;;;;;5115787;28;20241;-78
2022/07/05 00:05:54;;;;;;;2.65;1.70;;;16.30;99.90;;;;;;5115614;28;20196;-77
2022/07/05 00:08:21;;;;;;;6.90;2.00;;;16.30;99.90;;;;;;5115487;28;20227;-77
2022/07/05 00:10:48;;;;;;;1.95;1.80;;;16.30;99.90;;;;;;5115780;28;20191;-78
2022/07/05 00:13:15;;;;;;;2.45;1.60;;;16.30;99.90;;;;;;5115660;28;20196;-78
2022/07/05 00:15:41;;;;;;;4.00;1.60;;;16.20;99.90;;;;;;5115496;28;20203;-78
2022/07/05 00:18:08;;;;;;;2.70;1.70;;;16.10;99.90;;;;;;5115339;28;20249;-77
2022/07/05 00:20:36;;;;;;;5.00;1.90;;;16.00;99.90;;;;;;5115378;28;20200;-78
2022/07/05 00:23:03;;;;;;;3.72;1.98;;;16.00;99.90;;;;;;5115385;28;20204;-78
2022/07/05 00:25:30;;;;;;;2.43;1.70;;;16.00;99.90;;;;;;5115085;28;20248;-78
2022/07/05 00:27:56;;;;;;;7.90;1.92;;;15.90;99.90;;;;;;5115222;28;20202;-78
2022/07/05 00:30:23;;;;;;;3.03;1.80;;;15.90;99.90;;;;;;5115018;28;20199;-77
2022/07/05 00:32:50;;;;;;;2.60;1.80;;;15.90;99.90;;;;;;5115067;28;20196;-78
2022/07/05 00:35:16;;;;;;;2.38;1.70;;;15.90;99.90;;;;;;5115345;28;20272;-78
2022/07/05 00:37:44;;;;;;;3.00;1.88;;;16.00;99.90;;;;;;5115228;28;20575;-78
2022/07/05 00:40:11;;;;;;;2.60;1.47;;;15.90;99.90;;;;;;5115099;28;20199;-78
2022/07/05 00:42:38;;;;;;;3.53;1.70;;;16.00;99.90;;;;;;5115304;28;20195;-78
2022/07/05 00:45:05;;;;;;;2.88;1.52;;;16.00;99.90;;;;;;5114974;28;20200;-79
2022/07/05 00:47:32;;;;;;;2.17;1.42;;;16.10;99.90;;;;;;5114859;28;20708;-78
2022/07/05 00:49:58;;;;;;;3.58;1.80;;;16.00;99.90;;;;;;5115078;28;20223;-78
2022/07/05 00:52:25;;;;;;;3.10;1.60;;;16.10;99.90;;;;;;5115058;28;20199;-78
2022/07/05 00:54:53;;;;;;;2.92;1.50;;;16.00;99.90;;;;;;5114886;28;20191;-78
2022/07/05 00:57:22;;;;;;;2.08;1.52;;;15.90;99.90;;;;;;5114710;28;20199;-78
2022/07/05 00:59:48;;;;;;;2.17;1.70;;;15.90;99.90;;;;;;5114567;28;20192;-77
2022/07/05 01:02:15;;;;;;;2.10;1.90;;;15.80;99.90;;;;;;5114445;28;20200;-78
2022/07/05 01:04:42;;;;;;;2.92;1.85;;;15.70;99.90;;;;;;5114643;28;20204;-78
2022/07/05 01:07:09;;;;;;;4.00;1.67;;;15.60;99.90;;;;;;5114633;28;20705;-78
2022/07/05 01:09:36;;;;;;;2.00;1.80;;;15.50;99.90;;;;;;5114395;28;20284;-78
2022/07/05 01:12:04;;;;;;;5.17;1.83;;;15.50;99.90;;;;;;5113281;28;20254;-78
2022/07/05 01:14:32;;;;;;;4.25;1.83;;;15.50;99.90;;;;;;5114181;27;20252;-78
2022/07/05 01:16:58;;;;;;;4.03;1.60;;;15.30;99.90;;;;;;5114469;28;20199;-78
2022/07/05 01:19:25;;;;;;;2.80;1.97;;;15.20;99.90;;;;;;5114030;28;20228;-78
2022/07/05 01:21:52;;;;;;;4.53;2.10;;;15.20;99.90;;;;;;5114243;28;20252;-78
2022/07/05 01:24:21;;;;;;;3.73;2.00;;;15.10;99.90;;;;;;5114377;28;20861;-78
2022/07/05 01:26:50;;;;;;;5.10;2.37;;;15.00;99.90;;;;;;5114037;28;20196;-78
2022/07/05 01:29:17;;;;;;;3.83;1.90;;;14.90;99.90;;;;;;5113871;28;20223;-78
2022/07/05 01:31:44;;;;;;;3.83;2.33;;;14.90;99.90;;;;;;5113952;28;20723;-77
2022/07/05 01:34:12;;;;;;;4.87;2.20;;;14.80;99.90;;;;;;5113918;28;20647;-78
2022/07/05 01:36:39;;;;;;;4.67;2.40;;;14.70;99.90;;;;;;5113975;28;20260;-78
2022/07/05 01:39:07;;;;;;;2.33;1.80;;;14.80;99.90;;;;;;5113853;28;20195;-78
2022/07/05 01:41:35;;;;;;;3.00;1.67;;;14.70;99.90;;;;;;5113688;28;20195;-77
2022/07/05 01:44:03;;;;;;;2.57;1.70;;;14.70;99.90;;;;;;5114007;28;20229;-78
2022/07/05 01:46:35;;;;;;;3.43;2.17;;;14.60;99.90;;;;;;5113864;28;20609;-77
2022/07/05 01:49:06;;;;;;;2.77;1.80;;;14.50;99.90;;;;;;5113656;28;20222;-78
2022/07/05 01:51:37;;;;;;;2.47;1.63;;;14.50;99.90;;;;;;5113702;28;20195;-78
2022/07/05 01:54:04;;;;;;;2.73;1.70;;;14.50;99.90;;;;;;5113531;28;20200;-77
2022/07/05 01:56:31;;;;;;;2.33;1.80;;;14.40;99.90;;;;;;5113801;28;20200;-78
2022/07/05 01:59:00;;;;;;;3.83;1.90;;;14.30;99.90;;;;;;5113800;28;20225;-78
2022/07/05 02:01:35;;;;;;;8.87;2.03;;;14.30;99.90;;;;;;5113612;28;20225;-78
2022/07/05 02:04:03;;;;;;;5.80;2.00;;;14.30;99.90;;;;;;5113536;28;20192;-78
2022/07/05 02:06:32;;;;;;;5.93;2.30;;;14.10;99.90;;;;;;5113540;28;20245;-78
2022/07/05 02:08:58;;;;;;;2.50;2.00;;;14.00;99.90;;;;;;5113427;28;20306;-78
2022/07/05 02:11:25;;;;;;;3.13;2.30;;;14.00;99.90;;;;;;5113490;28;20200;-78
2022/07/05 02:13:52;;;;;;;3.37;2.30;;;14.10;99.90;;;;;;5113399;28;20199;-78
2022/07/05 02:16:23;;;;;;;3.17;1.83;;;14.00;99.90;;;;;;5113347;28;20253;-78
2022/07/05 02:18:49;;;;;;;1.97;1.70;;;13.90;99.90;;;;;;5113205;28;20239;-78
2022/07/05 02:21:16;;;;;;;3.90;2.33;;;13.90;99.90;;;;;;5113077;28;20223;-78
2022/07/05 02:23:43;;;;;;;5.80;2.40;;;13.90;99.90;;;;;;5113036;28;20671;-77
2022/07/05 02:26:10;;;;;;;2.50;2.30;;;13.80;99.90;;;;;;5111981;28;20829;-78
2022/07/05 02:28:36;;;;;;;4.87;2.60;;;13.80;99.90;;;;;;5113180;28;20206;-78
2022/07/05 02:31:03;;;;;;;4.33;2.10;;;13.70;99.90;;;;;;5113008;28;20650;-78
2022/07/05 02:33:31;;;;;;;3.80;2.33;;;13.60;99.90;;;;;;5113169;28;20196;-78
2022/07/05 02:35:58;;;;;;;4.80;2.23;;;13.70;99.90;;;;;;5113023;28;20206;-78
2022/07/05 02:38:25;;;;;;;4.27;2.43;;;13.70;99.90;;;;;;5113135;28;20287;-77
2022/07/05 02:40:51;;;;;;;2.90;2.50;;;13.60;99.90;;;;;;5113243;28;20196;-78
2022/07/05 02:43:18;;;;;;;3.80;2.10;;;13.80;99.90;;;;;;5113058;28;20192;-78
2022/07/05 02:45:45;;;;;;;3.07;2.10;;;13.70;99.90;;;;;;5113064;28;20264;-77
2022/07/05 02:48:11;;;;;;;5.37;2.73;;;13.60;99.90;;;;;;5113018;28;20293;-77
2022/07/05 02:50:39;;;;;;;4.30;2.40;;;13.40;99.90;;;;;;5113375;28;20219;-78
2022/07/05 02:53:06;;;;;;;6.70;2.70;;;13.30;99.90;;;;;;5113080;28;20245;-77
2022/07/05 02:55:32;;;;;;;4.27;2.47;;;13.50;99.90;;;;;;5113170;28;20200;-78
2022/07/05 02:57:59;;;;;;;8.70;2.60;;;13.40;99.90;;;;;;5113015;28;20195;-77
2022/07/05 03:00:26;;;;;;;4.43;2.40;;;13.40;99.90;;;;;;5113100;28;20200;-78
2022/07/05 03:02:52;;;;;;;3.37;2.63;;;13.40;99.90;;;;;;5112922;28;20237;-78
2022/07/05 03:05:19;;;;;;;3.57;2.57;;;13.30;99.90;;;;;;5112833;28;20199;-78
2022/07/05 03:07:47;;;;;;;2.70;2.50;;;13.30;99.90;;;;;;5113049;28;20199;-78
2022/07/05 03:10:14;;;;;;;4.17;2.50;;;13.30;99.90;;;;;;5112669;28;20303;-78
2022/07/05 03:12:40;;;;;;;5.77;3.00;;;13.10;99.90;;;;;;5112778;28;20192;-78
2022/07/05 03:15:08;;;;;;;3.77;2.80;;;13.00;99.90;;;;;;5112901;28;20241;-78
2022/07/05 03:17:35;;;;;;;4.37;2.80;;;12.90;99.90;;;;;;5112767;28;20616;-78
2022/07/05 03:20:02;;;;;;;4.83;2.70;;;12.80;99.90;;;;;;5112438;28;20276;-78
2022/07/05 03:22:29;;;;;;;5.13;2.80;;;12.70;99.90;;;;;;5112787;28;20252;-77
2022/07/05 03:24:57;;;;;;;4.63;2.73;;;12.80;99.90;;;;;;5112715;28;20191;-78
2022/07/05 03:27:23;;;;;;;3.57;2.83;;;12.80;99.90;;;;;;5112678;28;20604;-78
2022/07/05 03:29:50;;;;;;;4.03;2.70;;;12.80;99.90;;;;;;5112564;28;20632;-79
2022/07/05 03:32:17;;;;;;;4.37;3.10;;;12.70;99.90;;;;;;5112795;28;20200;-78
2022/07/05 03:34:43;;;;;;;5.03;2.80;;;12.70;99.90;;;;;;5114555;28;20650;-78
2022/07/05 03:37:10;;;;;;;3.70;2.83;;;12.70;99.90;;;;;;5116276;28;20712;-78
2022/07/05 03:39:37;;;;;;;3.10;2.80;;;12.60;99.90;;;;;;5116347;28;20670;-78
2022/07/05 03:42:06;;;;;;;4.27;3.03;;;12.50;99.90;;;;;;5116500;28;20199;-78
2022/07/05 03:44:33;;;;;;;3.97;2.77;;;12.60;99.90;;;;;;5116169;28;20241;-78
2022/07/05 03:46:59;;;;;;;3.97;2.80;;;12.50;99.90;;;;;;5115994;28;20200;-77
2022/07/05 03:49:26;;;;;;;4.47;3.27;;;12.60;99.90;;;;;;5116024;27;20269;-77
2022/07/05 03:51:53;;;;;;;4.33;3.13;;;12.60;99.90;;;;;;5116029;28;20195;-77
2022/07/05 03:54:19;;;;;;;5.07;2.90;;;12.60;99.90;;;;;;5115956;28;20253;-78
2022/07/05 03:56:46;;;;;;;3.13;2.80;;;12.70;99.90;;;;;;5115825;28;20203;-77
2022/07/05 03:59:14;;;;;;;3.43;3.13;;;12.70;99.90;;;;;;5115725;28;20244;-77
2022/07/05 04:01:40;;;;;;;5.17;2.90;;;12.70;99.90;;;;;;5115787;28;20826;-77
2022/07/05 04:04:08;;;;;;;3.10;2.80;;;12.60;99.90;;;;;;5115903;28;20196;-77
2022/07/05 04:06:34;;;;;;;5.40;3.07;;;12.50;99.90;;;;;;5115683;28;20282;-77
2022/07/05 04:09:01;;;;;;;4.77;3.23;;;12.50;99.90;;;;;;5115398;28;20642;-77
2022/07/05 04:11:28;;;;;;;5.63;3.13;;;12.60;99.90;;;;;;5115588;28;20196;-77
2022/07/05 04:13:54;;;;;;;3.93;2.90;;;12.70;99.90;;;;;;5115409;27;20200;-77
2022/07/05 04:16:22;;;;;;;6.10;3.43;;;12.70;99.90;;;;;;5115664;28;20192;-77
2022/07/05 04:18:49;;;;;;;3.73;3.33;;;12.90;99.90;;;;;;5115442;28;20232;-78
2022/07/05 04:21:16;;;;;;;4.80;3.37;;;13.00;99.90;;;;;;5115595;28;20257;-77
2022/07/05 04:23:42;;;;;;;5.30;3.30;;;13.00;99.90;;;;;;5115604;28;20716;-77
2022/07/05 04:26:09;;;;;;;6.27;3.13;;;13.10;99.90;;;;;;5115638;28;20196;-78
2022/07/05 04:28:36;;;;;;;4.07;2.50;;;13.20;99.90;;;;;;5115404;28;20203;-78
2022/07/05 04:31:03;;;;;;;4.67;2.63;;;13.10;99.90;;;;;;5115266;28;20265;-77
2022/07/05 04:33:31;;;;;;;5.07;3.27;;;13.20;99.90;;;;;;5115345;27;20196;-77
2022/07/05 04:35:57;;;;;;;6.17;3.63;;;13.30;99.90;;;;;;5115186;28;20532;-78
2022/07/05 04:38:24;;;;;;;4.30;3.43;;;13.40;99.90;;;;;;5115075;28;20204;-78
2022/07/05 04:40:51;;;;;;;5.57;2.97;;;13.60;99.90;;;;;;5114972;28;20604;-77
2022/07/05 04:43:17;;;;;;;3.97;3.23;;;13.70;99.90;;;;;;5114917;27;20597;-77
2022/07/05 04:45:44;;;;;;;4.27;3.20;;;13.80;99.90;;;;;;5114857;28;20195;-78
2022/07/05 04:48:11;;;;;;;3.30;2.80;;;14.00;99.90;;;;;;5114797;28;20327;-77
2022/07/05 04:50:39;;;;;;;5.57;3.30;;;14.00;99.90;;;;;;5114717;28;20223;-77
2022/07/05 04:53:05;;;;;;;4.17;3.00;;;14.10;99.90;;;;;;5114944;28;20199;-77
2022/07/05 04:55:32;;;;;;;4.57;3.00;;;14.10;99.90;;;;;;5114662;28;20208;-77
2022/07/05 04:57:59;;;;;;;3.03;2.57;;;14.30;99.90;;;;;;5114683;28;20650;-77
2022/07/05 05:00:25;;;;;;;4.30;3.20;;;14.40;99.90;;;;;;5114735;28;20196;-77
2022/07/05 05:02:53;;;;;;;3.00;2.57;;;14.50;99.90;;;;;;5114749;28;20200;-77
2022/07/05 05:05:20;;;;;;;4.53;2.80;;;14.60;99.90;;;;;;5114656;28;20199;-77
2022/07/05 05:07:48;;;;;;;3.67;2.80;;;14.80;99.90;;;;;;5114387;28;20200;-76
2022/07/05 05:10:14;;;;;;;5.00;3.20;;;14.90;99.90;;;;;;5114311;28;20221;-78
2022/07/05 05:12:41;;;;;;;3.53;2.77;;;15.10;99.90;;;;;;5114577;28;20204;-77
2022/07/05 05:15:09;;;;;;;6.97;2.90;;;15.20;99.90;;;;;;5114443;28;20196;-77
2022/07/05 05:17:37;;;;;;;3.35;3.05;;;15.20;99.90;;;;;;5114139;28;20219;-75
2022/07/05 05:20:06;;;;;;;6.10;3.40;;;15.40;99.90;;;;;;5113985;28;20255;-75
2022/07/05 05:22:32;;;;;;;4.13;2.63;;;15.50;99.90;;;;;;5114079;28;20192;-75
2022/07/05 05:25:00;;;;;;;4.30;2.77;;;15.60;99.90;;;;;;5114200;28;20252;-75
2022/07/05 05:27:27;;;;;;;5.97;2.90;;;15.70;99.90;;;;;;5114208;28;20203;-75
2022/07/05 05:29:56;;;;;;;5.97;2.50;;;15.90;99.90;;;;;;5113707;28;20674;-79
2022/07/05 05:32:23;;;;;;;4.90;3.00;;;16.00;99.90;;;;;;5113899;28;20658;-80
2022/07/05 05:34:50;;;;;;;3.47;2.53;;;16.20;99.90;;;;;;5113640;28;20196;-80
2022/07/05 05:37:17;;;;;;;9.82;2.55;;;16.30;99.90;;;;;;5113840;28;20191;-79
2022/07/05 05:39:44;;;;;;;3.60;2.70;;;16.40;99.90;;;;;;5113877;28;20241;-81
2022/07/05 05:42:12;;;;;;;3.55;2.85;;;16.50;99.90;;;;;;5113799;28;20206;-80
2022/07/05 05:44:38;;;;;;;2.63;2.38;;;16.70;99.90;;;;;;5114156;28;20199;-79
2022/07/05 05:47:05;;;;;;;2.65;2.42;;;16.80;99.90;;;;;;5119796;28;20195;-85
2022/07/05 05:49:32;;;;;;;6.30;2.30;;;16.90;99.90;;;;;;5115102;28;20198;-81
2022/07/05 05:51:59;;;;;;;3.95;2.50;;;17.00;99.90;;;;;;5117516;28;20199;-81
2022/07/05 05:54:26;;;;;;;5.97;2.47;;;17.10;99.90;;;;;;5113752;28;20723;-81
2022/07/05 05:56:52;;;;;;;4.47;2.67;;;17.20;99.90;;;;;;5113227;28;20204;-81
2022/07/05 05:59:20;;;;;;;4.97;2.70;;;17.30;99.90;;;;;;5115772;28;20192;-81
2022/07/05 06:01:47;;;;;;;5.07;2.83;;;17.40;99.90;;;;;;5113938;28;20207;-81
2022/07/05 06:04:14;;;;;;;5.13;2.60;;;17.40;99.90;;;;;;5113516;28;20241;-81
2022/07/05 06:06:40;;;;;;;4.03;2.60;;;17.60;99.90;;;;;;5113817;28;20241;-80
2022/07/05 06:09:07;;;;;;;3.85;2.63;;;17.70;99.90;;;;;;5114060;28;20195;-81
2022/07/05 06:11:34;;;;;;;5.65;2.83;;;17.80;99.90;;;;;;5113701;28;20245;-81
2022/07/05 06:14:00;;;;;;;2.50;2.30;;;18.00;99.90;;;;;;5113900;28;20203;-82
2022/07/05 06:16:28;;;;;;;3.22;2.55;;;18.10;99.90;;;;;;5113552;28;20336;-82
2022/07/05 06:18:55;;;;;;;3.10;2.40;;;18.20;99.90;;;;;;5113567;28;20264;-80
2022/07/05 06:21:21;;;;;;;6.13;2.13;;;18.30;99.90;;;;;;5114313;28;20199;-81
2022/07/05 06:23:48;;;;;;;4.43;2.47;;;18.50;99.90;;;;;;5115963;28;20199;-80
2022/07/05 06:26:15;;;;;;;2.40;2.20;;;18.50;99.90;;;;;;5118572;28;20195;-80
2022/07/05 06:28:41;;;;;;;4.32;1.98;;;18.70;99.90;;;;;;5122810;28;20199;-81
2022/07/05 06:31:08;;;;;;;3.05;2.25;;;18.80;99.90;;;;;;5126587;28;20227;-81
2022/07/05 06:33:36;;;;;;;2.75;1.83;;;18.90;99.90;;;;;;5124744;28;20272;-82
2022/07/05 06:36:03;;;;;;;2.30;2.10;;;18.90;99.90;;;;;;5113884;28;20207;-80
2022/07/05 06:38:29;;;;;;;2.88;2.20;;;19.00;99.90;;;;;;5113431;28;20535;-81
2022/07/05 06:40:57;;;;;;;2.50;2.30;;;19.10;99.90;;;;;;5113419;28;20215;-82
2022/07/05 06:43:25;;;;;;;3.53;2.13;;;19.10;99.90;;;;;;5113418;28;20199;-81
2022/07/05 06:45:52;;;;;;;2.42;1.90;;;19.30;99.90;;;;;;5113280;28;20270;-81
2022/07/05 06:48:19;;;;;;;2.40;2.20;;;19.40;99.90;;;;;;5113453;28;20200;-80
2022/07/05 06:50:47;;;;;;;5.68;2.03;;;19.50;99.90;;;;;;5113177;28;20288;-81
2022/07/05 06:53:14;;;;;;;2.72;2.25;;;19.60;99.90;;;;;;5113267;28;20616;-81
2022/07/05 06:55:44;;;;;;;3.38;2.15;;;19.60;99.90;;;;;;5113302;28;20191;-81
2022/07/05 06:58:11;;;;;;;3.40;2.30;;;19.60;99.90;;;;;;5113296;28;20221;-80
2022/07/05 07:00:38;;;;;;;4.55;2.35;;;19.60;99.90;;;;;;5113460;28;20274;-80
2022/07/05 07:03:04;;;;;;;3.88;2.40;;;19.80;99.90;;;;;;5113305;28;20199;-82
2022/07/05 07:05:31;;;;;;;2.70;2.35;;;19.80;99.90;;;;;;5113641;28;20245;-81
2022/07/05 07:10:43;;;;;;;4.63;2.20;;;20.00;99.90;;;;;;5116686;28;20222;-82
2022/07/05 07:13:10;;;;;;;3.53;2.35;;;20.10;99.90;;;;;;5117510;28;20195;-82
2022/07/05 07:15:37;;;;;;;2.17;1.98;;;20.10;99.90;;;;;;5117407;28;20268;-81
2022/07/05 07:18:04;;;;;;;5.53;1.88;;;20.20;99.90;;;;;;5117009;28;20196;-81
2022/07/05 07:20:31;;;;;;;6.10;2.20;;;20.30;99.90;;;;;;5117297;28;20252;-82
2022/07/05 07:22:59;;;;;;;4.50;2.10;;;20.50;99.90;;;;;;5117847;28;20196;-81
2022/07/05 07:25:26;;;;;;;6.75;2.10;;;20.60;99.90;;;;;;5116907;28;20593;-82
2022/07/05 07:27:55;;;;;;;3.70;2.00;;;20.70;99.90;;;;;;5116649;28;20651;-81
2022/07/05 07:30:24;;;;;;;4.78;2.03;;;20.80;99.90;;;;;;5116969;28;20306;-82
2022/07/05 07:32:51;;;;;;;4.47;2.30;;;20.80;99.90;;;;;;5116722;28;20484;-82
2022/07/05 07:35:18;;;;;;;7.78;2.20;;;21.00;99.90;;;;;;5116680;28;20203;-82
2022/07/05 07:37:45;;;;;;;7.13;2.22;;;21.00;99.90;;;;;;5116545;28;20200;-82
2022/07/05 07:40:13;;;;;;;4.03;1.90;;;21.20;99.70;;;;;;5116219;28;20480;-81
2022/07/05 07:42:40;;;;;;;6.68;2.25;;;21.30;99.60;;;;;;5116573;28;20316;-82
2022/07/05 07:45:08;;;;;;;7.50;2.22;;;21.30;99.40;;;;;;5116526;28;20256;-81
2022/07/05 07:47:36;;;;;;;2.03;1.88;;;21.50;98.20;;;;;;5116183;28;20654;-81
2022/07/05 07:50:04;;;;;;;5.63;2.03;;;21.50;97.40;;;;;;5116330;28;20249;-82
2022/07/05 07:52:33;;;;;;;5.38;2.33;;;21.50;97.30;;;;;;5116017;28;20200;-81
2022/07/05 07:55:00;;;;;;;6.05;2.38;;;21.60;96.90;;;;;;5116608;28;20228;-81
2022/07/05 07:57:28;;;;;;;5.90;2.45;;;21.70;96.30;;;;;;5116320;28;20196;-82
2022/07/05 07:59:54;;;;;;;4.55;2.08;;;21.90;95.80;;;;;;5116098;28;20592;-82
2022/07/05 08:02:22;;;;;;;2.95;2.08;;;22.10;96.70;;;;;;5116806;28;20306;-82
2022/07/05 08:04:49;;;;;;;3.58;2.20;;;22.30;93.40;;;;;;5116457;28;20216;-82
2022/07/05 08:07:17;;;;;;;6.47;1.83;;;22.40;92.10;;;;;;5116555;28;20196;-82
2022/07/05 08:09:44;;;;;;;3.20;2.10;;;22.50;91.40;;;;;;5116280;28;20290;-82
2022/07/05 08:12:11;;;;;;;2.22;1.70;;;22.70;91.60;;;;;;5115938;28;20223;-82
2022/07/05 08:14:39;;;;;;;2.60;1.90;;;22.90;89.90;;;;;;5115838;28;20729;-82
2022/07/05 08:17:08;;;;;;;2.17;1.90;;;23.10;87.60;;;;;;5115408;28;20264;-82
2022/07/05 08:22:19;;;;;;;3.35;2.03;;;23.30;82.40;;;;;;5115729;28;20283;-82
2022/07/05 08:24:46;;;;;;;3.38;1.85;;;23.80;83.80;;;;;;5115624;28;20665;-82
2022/07/05 08:27:13;;;;;;;5.22;2.10;;;24.20;78.60;;;;;;5115735;28;20199;-82
2022/07/05 08:29:41;;;;;;;2.50;1.80;;;24.00;72.60;;;;;;5115601;28;20192;-82
2022/07/05 08:32:09;;;;;;;2.20;1.98;;;23.90;68.50;;;;;;5115149;28;20273;-82
2022/07/05 08:34:37;;;;;;;3.58;2.00;;;23.90;64.80;;;;;;5115609;28;20192;-81
2022/07/05 08:37:04;;;;;;;7.07;1.92;;;23.80;63.70;;;;;;5115402;28;20200;-82
2022/07/05 08:39:31;;;;;;;4.03;1.83;;;23.70;60.60;;;;;;5115416;28;20268;-82
2022/07/05 08:41:59;;;;;;;3.00;1.80;;;23.50;59.50;;;;;;5115446;28;20200;-82
2022/07/05 08:44:28;;;;;;;2.90;1.77;;;23.60;60.50;;;;;;5115227;28;20196;-81
2022/07/05 08:46:57;;;;;;;2.13;1.70;;;24.00;60.90;;;;;;5115377;28;20211;-81
2022/07/05 08:49:26;;;;;;;3.67;2.00;;;23.90;60.10;;;;;;5115408;28;20191;-81
2022/07/05 08:51:54;;;;;;;3.30;1.70;;;24.00;57.80;;;;;;5114977;28;20234;-81
2022/07/05 08:54:22;;;;;;;2.78;1.70;;;23.80;55.40;;;;;;5114963;28;20198;-82
2022/07/05 08:56:48;;;;;;;4.63;1.98;;;23.70;55.10;;;;;;5115103;28;20204;-81
2022/07/05 08:59:15;;;;;;;3.47;2.15;;;23.90;55.00;;;;;;5114823;28;20269;-80
2022/07/05 09:01:45;;;;;;;3.72;1.73;;;24.30;56.00;;;;;;5114869;28;20195;-80
2022/07/05 09:04:16;;;;;;;4.07;1.65;;;25.30;53.10;;;;;;5115187;28;20249;-80
2022/07/05 09:06:47;;;;;;;2.08;1.73;;;26.10;51.80;;;;;;5115447;27;20203;-80
2022/07/05 09:09:17;;;;;;;2.20;1.65;;;26.70;47.70;;;;;;5115489;28;20199;-80
2022/07/05 09:11:46;;;;;;;2.80;1.88;;;26.60;45.50;;;;;;5115260;28;20690;-82
2022/07/05 09:14:20;;;;;;;4.20;1.63;;;27.30;45.20;;;;;;5116334;28;20212;-82
2022/07/05 09:16:47;;;;;;;2.55;1.67;;;28.00;42.80;;;;;;5117257;28;20201;-81
2022/07/05 09:19:15;;;;;;;3.15;1.80;;;26.90;41.90;;;;;;5122764;28;20231;-82
2022/07/05 09:21:42;;;;;;;2.00;1.80;;;26.20;43.50;;;;;;5124449;28;20625;-81
2022/07/05 09:24:10;;;;;;;2.15;1.88;;;25.90;43.50;;;;;;5125344;27;20595;-81
2022/07/05 09:26:38;;;;;;;4.82;1.77;;;25.30;42.60;;;;;;5129118;28;20195;-80
2022/07/05 09:29:08;;;;;;;2.03;1.73;;;25.00;42.40;;;;;;5123886;28;20655;-81
2022/07/05 09:31:36;;;;;;;4.90;2.00;;;25.10;42.30;;;;;;5113766;28;20227;-82
2022/07/05 09:34:06;;;;;;;4.35;1.95;;;25.70;42.70;;;;;;5114394;28;20241;-82
2022/07/05 09:39:38;;;;;;;2.55;1.75;;;26.10;42.70;;;;;;5132270;27;20294;-81
2022/07/05 09:42:13;;;;;;;4.22;1.75;;;26.00;40.90;;;;;;5113940;28;20248;-80
2022/07/05 09:44:42;;;;;;;4.57;1.80;;;26.60;40.10;;;;;;5115991;28;20198;-81
2022/07/05 09:47:11;;;;;;;3.80;2.10;;;26.00;40.00;;;;;;5114926;28;20196;-80
2022/07/05 09:49:39;;;;;;;4.10;2.00;;;25.90;40.50;;;;;;5113214;28;20567;-80
2022/07/05 09:52:06;;;;;;;2.80;1.70;;;25.80;40.60;;;;;;5110941;28;20200;-81
2022/07/05 09:54:32;;;;;;;3.80;1.80;;;25.50;40.70;;;;;;5110711;28;20329;-82
2022/07/05 09:57:00;;;;;;;3.20;1.73;;;25.70;40.70;;;;;;5111105;28;20241;-82
2022/07/05 09:59:27;;;;;;;2.17;1.98;;;25.80;39.90;;;;;;5110449;28;20794;-81
2022/07/05 10:01:54;;;;;;;1.88;1.58;;;25.20;40.40;;;;;;5110992;28;20273;-81
2022/07/05 10:04:21;;;;;;;2.80;1.73;;;26.10;39.70;;;;;;5110816;28;20240;-82
2022/07/05 10:06:48;;;;;;;2.05;1.70;;;26.10;39.40;;;;;;5110483;28;20709;-82
2022/07/05 10:09:15;;;;;;;2.65;2.00;;;26.90;38.60;;;;;;5110495;28;20210;-81
2022/07/05 10:11:45;;;;;;;4.20;1.70;;;27.40;37.90;;;;;;5110266;28;20238;-81
2022/07/05 10:14:20;;;;;;;5.25;2.15;;;26.80;36.80;;;;;;5110324;28;20646;-82
2022/07/05 10:16:55;;;;;;;2.22;1.55;;;27.40;36.50;;;;;;5110101;28;20619;-82
2022/07/05 10:19:22;;;;;;;3.22;1.90;;;27.50;35.80;;;;;;5110054;28;20227;-81
2022/07/05 10:21:50;;;;;;;4.45;1.60;;;28.10;34.60;;;;;;5109952;28;20654;-82
2022/07/05 10:24:18;;;;;;;6.93;1.85;;;29.20;33.70;;;;;;5110143;28;20195;-81
2022/07/05 10:26:46;;;;;;;3.65;1.80;;;27.90;33.90;;;;;;5109985;28;20303;-81
2022/07/05 10:29:16;;;;;;;3.05;1.67;;;27.40;35.00;;;;;;5109713;28;20601;-81
2022/07/05 10:31:45;;;;;;;3.33;1.80;;;27.10;35.10;;;;;;5109852;28;20199;-81
2022/07/05 10:34:13;;;;;;;1.95;1.70;;;26.90;34.90;;;;;;5109699;28;20222;-82
2022/07/05 10:36:41;;;;;;;3.13;1.58;;;26.50;34.40;;;;;;5109683;28;20196;-81
2022/07/05 10:39:09;;;;;;;3.10;1.60;;;26.20;34.30;;;;;;5109224;28;20239;-82
2022/07/05 10:41:36;;;;;;;1.40;1.30;;;27.00;34.70;;;;;;5109821;28;20250;-82
2022/07/05 10:44:03;;;;;;;3.67;1.83;;;27.40;34.40;;;;;;5118257;28;20520;-82
2022/07/05 10:46:41;;;;;;;2.80;1.50;;;28.30;33.00;;;;;;5124223;28;20192;-82
2022/07/05 10:49:14;;;;;;;1.95;1.70;;;28.10;33.30;;;;;;5105302;28;20610;-82
2022/07/05 10:51:40;;;;;;;3.63;2.13;;;27.80;33.60;;;;;;5095668;28;20196;-81
2022/07/05 10:54:07;;;;;;;3.78;1.70;;;28.60;34.40;;;;;;5095856;28;20609;-81
2022/07/05 10:56:34;;;;;;;4.43;1.73;;;30.30;31.30;;;;;;5095952;28;20337;-82
2022/07/05 10:59:09;;;;;;;4.72;1.75;;;30.00;29.40;;;;;;5095638;28;20246;-81
2022/07/05 11:01:41;;;;;;;3.95;1.90;;;29.20;29.10;;;;;;5095651;28;20196;-81
2022/07/05 11:04:38;;;;;;;4.38;1.70;;;28.30;29.30;;;;;;5095574;28;20211;-81
2022/07/05 11:07:05;;;;;;;3.45;1.75;;;28.80;29.20;;;;;;5095716;28;20222;-81
2022/07/05 11:09:31;;;;;;;2.63;1.65;;;29.60;29.40;;;;;;5095569;28;20550;-82
2022/07/05 11:12:13;;;;;;;3.03;1.70;;;29.40;29.80;;;;;;5095582;28;20200;-80
2022/07/05 11:14:46;;;;;;;4.13;1.63;;;28.70;29.90;;;;;;5095230;28;20196;-81
2022/07/05 11:17:25;;;;;;;4.80;1.38;;;29.90;29.50;;;;;;5095514;28;20197;-81
2022/07/05 11:20:07;;;;;;;2.03;1.60;;;31.50;28.10;;;;;;5095543;28;20564;-81
2022/07/05 11:22:35;;;;;;;2.47;1.30;;;31.20;27.40;;;;;;5095197;28;20210;-81
2022/07/05 11:25:02;;;;;;;3.72;1.50;;;30.50;27.20;;;;;;5095178;28;20242;-80
2022/07/05 11:27:30;;;;;;;1.70;1.40;;;30.90;27.00;;;;;;5095625;28;20602;-81
2022/07/05 11:29:57;;;;;;;2.75;1.80;;;32.50;26.00;;;;;;5095378;28;20253;-81
2022/07/05 11:32:37;;;;;;;2.10;1.58;;;34.40;24.90;;;;;;5095242;28;20196;-81
2022/07/05 11:35:15;;;;;;;5.15;1.58;;;36.10;22.40;;;;;;5095065;28;20195;-80
2022/07/05 11:37:59;;;;;;;2.20;1.48;;;32.30;22.90;;;;;;5094573;28;20306;-81
2022/07/05 11:40:30;;;;;;;2.58;1.63;;;31.80;24.50;;;;;;5095080;28;20195;-81
2022/07/05 11:42:57;;;;;;;1.85;1.40;;;31.50;24.70;;;;;;5094695;28;20261;-81
2022/07/05 11:45:24;;;;;;;1.77;1.50;;;32.40;24.00;;;;;;5094975;28;20258;-82
2022/07/05 11:47:55;;;;;;;3.83;1.55;;;33.10;23.40;;;;;;5094532;28;20195;-81
2022/07/05 11:50:27;;;;;;;2.67;1.58;;;33.50;22.70;;;;;;5094710;28;20196;-81
2022/07/05 11:52:54;;;;;;;2.67;1.55;;;32.00;22.70;;;;;;5094727;28;20196;-81
2022/07/05 11:55:21;;;;;;;2.05;1.50;;;30.80;23.60;;;;;;5094626;28;20559;-81
2022/07/05 11:57:52;;;;;;;3.33;1.50;;;31.00;23.70;;;;;;5094701;28;20196;-81
2022/07/05 12:00:40;;;;;;;2.05;1.40;;;32.40;22.30;;;;;;5096150;28;20226;-81
2022/07/05 12:03:14;;;;;;;2.13;1.33;;;32.30;21.70;;;;;;5089607;28;20196;-81
2022/07/05 12:05:41;;;;;;;2.88;1.70;;;32.30;22.00;;;;;;5094424;28;20257;-82
2022/07/05 12:08:09;;;;;;;2.00;1.50;;;33.00;21.30;;;;;;5094626;28;20227;-82
2022/07/05 12:13:20;;;;;;;4.70;1.45;;;30.70;22.40;;;;;;5094377;28;20277;-81
2022/07/05 12:15:47;;;;;;;2.17;1.70;;;32.10;21.90;;;;;;5094355;28;20249;-82
2022/07/05 12:18:16;;;;;;;2.28;1.45;;;33.30;20.20;;;;;;5094234;28;20227;-80
2022/07/05 12:20:42;;;;;;;4.53;1.50;;;33.70;19.20;;;;;;5094007;28;20272;-80
2022/07/05 12:23:09;;;;;;;2.08;1.30;;;34.40;19.00;;;;;;5094175;28;20203;-80
2022/07/05 12:25:37;;;;;;;1.75;1.50;;;36.50;18.00;;;;;;5093972;28;20249;-80
2022/07/05 12:28:06;;;;;;;1.85;1.30;;;37.10;16.30;;;;;;5093901;28;20650;-81
2022/07/05 12:30:33;;;;;;;3.92;1.40;;;35.80;17.10;;;;;;5094064;28;20221;-82
2022/07/05 12:33:02;;;;;;;3.25;1.42;;;34.60;17.10;;;;;;5093881;28;20196;-81
2022/07/05 12:35:35;;;;;;;1.88;1.40;;;32.80;18.70;;;;;;5094094;28;20219;-82
2022/07/05 12:38:07;;;;;;;2.40;1.50;;;31.60;19.70;;;;;;5093468;28;20319;-80
2022/07/05 12:40:35;;;;;;;2.92;1.70;;;32.50;19.40;;;;;;5093947;28;20272;-80
2022/07/05 12:43:07;;;;;;;5.32;1.40;;;32.50;19.40;;;;;;5093674;28;20191;-80
2022/07/05 12:45:34;;;;;;;2.55;1.38;;;32.70;19.40;;;;;;5093667;28;20635;-81
2022/07/05 12:48:03;;;;;;;2.75;1.40;;;33.30;19.50;;;;;;5093586;28;20567;-81
2022/07/05 12:50:31;;;;;;;1.67;1.30;;;33.00;18.80;;;;;;5093347;28;20200;-81
2022/07/05 12:58:33;;;;;;;1.73;1.48;;;33.70;19.30;;;;;;5093354;28;20624;-81
2022/07/05 13:01:00;;;;;;;2.33;1.52;;;34.90;18.30;;;;;;5093462;28;20658;-81
2022/07/05 13:03:26;;;;;;;5.88;1.65;;;33.20;18.10;;;;;;5093699;28;20192;-81
2022/07/05 13:06:03;;;;;;;2.60;1.40;;;33.10;18.10;;;;;;5093289;28;20720;-81
2022/07/05 13:08:31;;;;;;;1.92;1.40;;;34.40;17.20;;;;;;5093547;28;20294;-81